Airport View

Enter AWOS ICAO identifier for current METAR.

ex. KFNL

KMDQ 191835Z AUTO 23011KT 10SM SCT033 SCT090 30/21 A2982 RMK A02 T02970211

19 Jun 2019 18:46

Frequency: 120.000

Phone: 256-829-1242

Other Area AWOS: KFYM - KHSV - KDCU - K4A6

TAF AMD KHSV 191829Z 1918/2018 24010G17KT P6SM SCT045 FM200100 22008KT P6SM SCT050 BKN250 FM200800 20015KT P6SM VCTS SCT030 OVC060CB TEMPO 2010/2014 VRB25G35KT -TSRA BKN030CB FM201500 25015KT P6SM OVC015